createdAt,value
2022-10-13T00:22:34.190Z,1.00
2022-10-13T00:29:02.065Z,1.00
2022-10-13T00:49:55.907Z,1.00
2022-10-13T00:54:41.774Z,1.00
2022-10-13T01:54:07.318Z,99.90
2022-10-13T02:59:42.672Z,1.00
2022-10-13T03:25:34.742Z,64.90
2022-10-13T03:44:45.030Z,1.00
2022-10-13T03:59:25.369Z,55.50
2022-10-13T04:09:52.981Z,1.00
2022-10-13T05:22:04.500Z,99.90
2022-10-13T05:42:11.001Z,1.00
2022-10-13T08:12:20.976Z,1.00
2022-10-13T14:39:06.764Z,1.00
2022-10-13T14:52:10.683Z,1.00
2022-10-13T15:32:41.957Z,1.00
2022-10-13T16:12:54.830Z,1.00
2022-10-13T16:23:19.072Z,1.00
2022-10-13T16:28:27.207Z,1.00
2022-10-13T16:33:29.221Z,1.00
2022-10-13T16:38:50.065Z,1.00
2022-10-13T16:49:12.058Z,1.00
2022-10-13T16:54:31.065Z,1.00
2022-10-13T16:59:50.673Z,1.00
2022-10-13T17:04:56.629Z,1.00
2022-10-13T17:09:59.722Z,1.00
2022-10-13T17:14:48.709Z,1.00
2022-10-13T17:20:06.438Z,1.00
2022-10-13T17:25:13.533Z,1.00
2022-10-13T17:31:05.574Z,1.00
2022-10-13T17:36:44.784Z,1.00
2022-10-13T17:47:38.762Z,47.80
2022-10-13T17:52:22.658Z,92.90
2022-10-13T17:58:02.293Z,99.90
2022-10-13T18:08:19.122Z,99.90
2022-10-13T18:13:48.693Z,99.90
2022-10-13T18:19:17.373Z,99.90
2022-10-13T18:24:44.464Z,99.90
2022-10-13T18:30:01.698Z,99.90
2022-10-13T18:35:22.421Z,33.70
2022-10-13T18:40:25.758Z,58.80
2022-10-13T18:45:48.891Z,18.90
2022-10-13T18:51:03.937Z,1.00
2022-10-13T18:56:08.336Z,1.00
2022-10-13T19:01:27.702Z,1.00
2022-10-13T19:06:33.478Z,1.00
2022-10-13T19:11:32.035Z,1.00
2022-10-13T19:17:24.714Z,3.40
2022-10-13T19:22:51.285Z,99.60
2022-10-13T19:28:06.711Z,99.90
2022-10-13T19:39:24.059Z,99.90
2022-10-13T19:44:07.963Z,99.90
2022-10-13T19:49:09.749Z,99.90
2022-10-13T19:54:18.885Z,99.90
2022-10-13T19:59:42.937Z,99.90
2022-10-13T20:04:54.621Z,99.90
2022-10-13T20:09:58.328Z,99.90
2022-10-13T20:20:54.930Z,99.90
2022-10-13T20:26:36.466Z,1.00
2022-10-13T20:32:02.380Z,1.00
2022-10-13T20:37:15.514Z,1.00
2022-10-13T20:42:19.790Z,1.00
2022-10-13T20:47:49.760Z,99.90
2022-10-13T20:53:10.056Z,1.00
2022-10-13T21:04:03.827Z,1.00
2022-10-13T21:09:59.127Z,99.90
2022-10-13T21:15:31.131Z,1.00
2022-10-13T21:26:51.665Z,1.00
2022-10-13T21:31:50.181Z,1.00
2022-10-13T21:42:32.603Z,49.10
2022-10-13T21:47:53.690Z,1.00
2022-10-13T21:52:54.505Z,1.00
2022-10-13T21:58:17.658Z,99.90
2022-10-13T22:03:37.916Z,99.90
2022-10-13T22:09:14.926Z,99.90
2022-10-13T22:14:01.393Z,99.90
2022-10-13T22:19:23.765Z,99.90
2022-10-13T22:24:27.837Z,99.90
2022-10-13T22:29:42.728Z,99.90
2022-10-13T22:34:50.857Z,99.90
2022-10-13T22:40:09.160Z,99.90
2022-10-13T22:50:43.613Z,99.90
2022-10-13T22:55:48.791Z,99.90
2022-10-13T23:00:44.726Z,99.90
2022-10-13T23:05:45.480Z,99.90
2022-10-13T23:11:24.990Z,99.90
2022-10-13T23:16:39.958Z,99.90
2022-10-13T23:21:46.705Z,99.90
2022-10-13T23:26:51.365Z,1.00
2022-10-13T23:31:40.648Z,99.90
2022-10-13T23:37:12.680Z,99.90
2022-10-13T23:42:02.627Z,99.90
2022-10-13T23:46:47.726Z,99.90
2022-10-13T23:51:40.139Z,99.90
2022-10-13T23:56:23.885Z,1.00
